sensor_id;sensor_type;location;lat;lon;timestamp;P1;durP1;ratioP1;P2;durP2;ratioP2
26052;SDS011;13826;51.186;4.450;2022-10-31T00:01:18;15.73;;;9.20;;
26052;SDS011;13826;51.186;4.450;2022-10-31T00:03:52;21.10;;;10.13;;
26052;SDS011;13826;51.186;4.450;2022-10-31T00:06:18;20.58;;;10.07;;
26052;SDS011;13826;51.186;4.450;2022-10-31T00:08:47;16.08;;;9.38;;
26052;SDS011;13826;51.186;4.450;2022-10-31T00:11:39;21.33;;;9.55;;
26052;SDS011;13826;51.186;4.450;2022-10-31T00:14:08;18.27;;;9.70;;
26052;SDS011;13826;51.186;4.450;2022-10-31T00:16:34;25.05;;;10.45;;
26052;SDS011;13826;51.186;4.450;2022-10-31T00:19:01;20.10;;;10.20;;
26052;SDS011;13826;51.186;4.450;2022-10-31T00:21:29;17.38;;;9.05;;
26052;SDS011;13826;51.186;4.450;2022-10-31T00:23:56;18.65;;;9.23;;
26052;SDS011;13826;51.186;4.450;2022-10-31T00:26:22;18.55;;;8.88;;
26052;SDS011;13826;51.186;4.450;2022-10-31T00:28:48;21.73;;;9.80;;
26052;SDS011;13826;51.186;4.450;2022-10-31T00:31:17;17.77;;;9.55;;
26052;SDS011;13826;51.186;4.450;2022-10-31T00:33:43;24.42;;;9.65;;
26052;SDS011;13826;51.186;4.450;2022-10-31T00:36:16;21.85;;;9.30;;
26052;SDS011;13826;51.186;4.450;2022-10-31T00:38:43;16.85;;;9.00;;
26052;SDS011;13826;51.186;4.450;2022-10-31T00:41:10;15.80;;;9.25;;
26052;SDS011;13826;51.186;4.450;2022-10-31T00:43:37;16.55;;;8.95;;
26052;SDS011;13826;51.186;4.450;2022-10-31T00:46:02;18.05;;;9.00;;
26052;SDS011;13826;51.186;4.450;2022-10-31T00:48:28;17.95;;;9.20;;
26052;SDS011;13826;51.186;4.450;2022-10-31T00:50:54;15.48;;;8.82;;
26052;SDS011;13826;51.186;4.450;2022-10-31T00:53:23;21.58;;;10.00;;
26052;SDS011;13826;51.186;4.450;2022-10-31T00:55:49;15.15;;;10.45;;
26052;SDS011;13826;51.186;4.450;2022-10-31T00:58:15;28.45;;;11.48;;
26052;SDS011;13826;51.186;4.450;2022-10-31T01:00:41;20.55;;;11.38;;
26052;SDS011;13826;51.186;4.450;2022-10-31T01:03:06;16.42;;;11.38;;
26052;SDS011;13826;51.186;4.450;2022-10-31T01:05:32;25.40;;;12.15;;
26052;SDS011;13826;51.186;4.450;2022-10-31T01:07:58;25.85;;;12.77;;
26052;SDS011;13826;51.186;4.450;2022-10-31T01:10:26;23.30;;;13.05;;
26052;SDS011;13826;51.186;4.450;2022-10-31T01:12:52;26.88;;;14.00;;
26052;SDS011;13826;51.186;4.450;2022-10-31T01:15:19;25.98;;;13.05;;
26052;SDS011;13826;51.186;4.450;2022-10-31T01:17:46;26.70;;;13.10;;
26052;SDS011;13826;51.186;4.450;2022-10-31T01:20:16;29.52;;;14.48;;
26052;SDS011;13826;51.186;4.450;2022-10-31T01:22:42;33.42;;;14.82;;
26052;SDS011;13826;51.186;4.450;2022-10-31T01:25:08;27.02;;;14.07;;
26052;SDS011;13826;51.186;4.450;2022-10-31T01:27:34;27.20;;;14.82;;
26052;SDS011;13826;51.186;4.450;2022-10-31T01:30:00;25.05;;;13.80;;
26052;SDS011;13826;51.186;4.450;2022-10-31T01:32:26;23.20;;;12.63;;
26052;SDS011;13826;51.186;4.450;2022-10-31T01:34:53;22.83;;;13.85;;
26052;SDS011;13826;51.186;4.450;2022-10-31T01:37:22;21.83;;;11.93;;
26052;SDS011;13826;51.186;4.450;2022-10-31T01:39:48;30.45;;;12.85;;
26052;SDS011;13826;51.186;4.450;2022-10-31T01:42:18;24.52;;;10.95;;
26052;SDS011;13826;51.186;4.450;2022-10-31T01:44:56;23.08;;;10.98;;
26052;SDS011;13826;51.186;4.450;2022-10-31T01:47:27;15.55;;;9.90;;
26052;SDS011;13826;51.186;4.450;2022-10-31T01:55:28;22.08;;;11.65;;
26052;SDS011;13826;51.186;4.450;2022-10-31T01:57:59;18.27;;;12.13;;
26052;SDS011;13826;51.186;4.450;2022-10-31T02:00:29;22.67;;;12.32;;
26052;SDS011;13826;51.186;4.450;2022-10-31T02:02:55;18.70;;;11.18;;
26052;SDS011;13826;51.186;4.450;2022-10-31T02:05:22;20.83;;;11.32;;
26052;SDS011;13826;51.186;4.450;2022-10-31T02:07:56;32.92;;;11.75;;
26052;SDS011;13826;51.186;4.450;2022-10-31T02:10:23;17.38;;;10.52;;
26052;SDS011;13826;51.186;4.450;2022-10-31T02:12:53;22.67;;;10.73;;
26052;SDS011;13826;51.186;4.450;2022-10-31T02:15:21;20.00;;;11.38;;
26052;SDS011;13826;51.186;4.450;2022-10-31T02:17:47;20.88;;;11.18;;
26052;SDS011;13826;51.186;4.450;2022-10-31T02:20:25;21.20;;;11.45;;
26052;SDS011;13826;51.186;4.450;2022-10-31T02:25:51;24.98;;;11.32;;
26052;SDS011;13826;51.186;4.450;2022-10-31T02:29:05;19.45;;;11.25;;
26052;SDS011;13826;51.186;4.450;2022-10-31T02:31:55;24.80;;;11.75;;
26052;SDS011;13826;51.186;4.450;2022-10-31T02:37:01;23.15;;;12.27;;
26052;SDS011;13826;51.186;4.450;2022-10-31T02:42:19;19.45;;;11.43;;
26052;SDS011;13826;51.186;4.450;2022-10-31T02:47:30;25.08;;;12.00;;
26052;SDS011;13826;51.186;4.450;2022-10-31T02:50:18;21.33;;;11.88;;
26052;SDS011;13826;51.186;4.450;2022-10-31T02:52:56;27.67;;;12.27;;
26052;SDS011;13826;51.186;4.450;2022-10-31T02:57:47;23.02;;;10.98;;
26052;SDS011;13826;51.186;4.450;2022-10-31T03:00:15;23.83;;;11.88;;
26052;SDS011;13826;51.186;4.450;2022-10-31T03:08:06;22.88;;;11.10;;
26052;SDS011;13826;51.186;4.450;2022-10-31T03:10:53;19.20;;;10.88;;
26052;SDS011;13826;51.186;4.450;2022-10-31T03:16:14;27.65;;;13.13;;
26052;SDS011;13826;51.186;4.450;2022-10-31T03:18:52;28.08;;;12.52;;
26052;SDS011;13826;51.186;4.450;2022-10-31T03:24:09;21.13;;;13.48;;
26052;SDS011;13826;51.186;4.450;2022-10-31T03:26:36;26.35;;;12.55;;
26052;SDS011;13826;51.186;4.450;2022-10-31T03:29:06;22.85;;;12.93;;
26052;SDS011;13826;51.186;4.450;2022-10-31T03:31:46;26.58;;;12.20;;
26052;SDS011;13826;51.186;4.450;2022-10-31T03:34:17;27.80;;;11.27;;
26052;SDS011;13826;51.186;4.450;2022-10-31T03:36:44;16.25;;;10.07;;
26052;SDS011;13826;51.186;4.450;2022-10-31T03:39:14;22.67;;;9.85;;
26052;SDS011;13826;51.186;4.450;2022-10-31T03:41:43;21.73;;;9.80;;
26052;SDS011;13826;51.186;4.450;2022-10-31T03:44:14;15.35;;;9.50;;
26052;SDS011;13826;51.186;4.450;2022-10-31T03:46:42;23.95;;;11.27;;
26052;SDS011;13826;51.186;4.450;2022-10-31T03:49:09;23.30;;;11.15;;
26052;SDS011;13826;51.186;4.450;2022-10-31T03:54:30;17.17;;;9.68;;
26052;SDS011;13826;51.186;4.450;2022-10-31T03:59:35;18.65;;;8.98;;
26052;SDS011;13826;51.186;4.450;2022-10-31T04:02:05;20.13;;;10.43;;
26052;SDS011;13826;51.186;4.450;2022-10-31T04:04:35;16.17;;;9.65;;
26052;SDS011;13826;51.186;4.450;2022-10-31T04:07:03;17.98;;;10.13;;
26052;SDS011;13826;51.186;4.450;2022-10-31T04:09:31;18.67;;;10.15;;
26052;SDS011;13826;51.186;4.450;2022-10-31T04:12:00;14.50;;;8.45;;
26052;SDS011;13826;51.186;4.450;2022-10-31T04:14:30;17.50;;;9.18;;
26052;SDS011;13826;51.186;4.450;2022-10-31T04:16:57;16.48;;;9.65;;
26052;SDS011;13826;51.186;4.450;2022-10-31T04:19:23;13.73;;;8.70;;
26052;SDS011;13826;51.186;4.450;2022-10-31T04:21:49;16.20;;;8.25;;
26052;SDS011;13826;51.186;4.450;2022-10-31T04:24:15;14.48;;;8.68;;
26052;SDS011;13826;51.186;4.450;2022-10-31T04:26:40;13.63;;;8.30;;
26052;SDS011;13826;51.186;4.450;2022-10-31T04:29:06;15.63;;;8.65;;
26052;SDS011;13826;51.186;4.450;2022-10-31T04:31:32;21.00;;;13.05;;
26052;SDS011;13826;51.186;4.450;2022-10-31T04:33:57;13.10;;;9.32;;
26052;SDS011;13826;51.186;4.450;2022-10-31T04:36:23;19.85;;;8.80;;
26052;SDS011;13826;51.186;4.450;2022-10-31T04:38:49;40.63;;;9.90;;
26052;SDS011;13826;51.186;4.450;2022-10-31T04:41:14;39.70;;;10.10;;
26052;SDS011;13826;51.186;4.450;2022-10-31T04:43:43;195.25;;;14.88;;
26052;SDS011;13826;51.186;4.450;2022-10-31T04:46:09;172.38;;;13.63;;
26052;SDS011;13826;51.186;4.450;2022-10-31T04:48:37;47.28;;;10.85;;
26052;SDS011;13826;51.186;4.450;2022-10-31T04:51:03;16.13;;;8.25;;
26052;SDS011;13826;51.186;4.450;2022-10-31T04:53:29;44.60;;;9.75;;
26052;SDS011;13826;51.186;4.450;2022-10-31T04:55:54;60.35;;;9.65;;
26052;SDS011;13826;51.186;4.450;2022-10-31T04:58:22;129.93;;;12.15;;
26052;SDS011;13826;51.186;4.450;2022-10-31T05:00:50;36.70;;;9.40;;
26052;SDS011;13826;51.186;4.450;2022-10-31T05:03:17;73.97;;;9.38;;
26052;SDS011;13826;51.186;4.450;2022-10-31T05:05:43;24.40;;;9.15;;
26052;SDS011;13826;51.186;4.450;2022-10-31T05:08:09;13.68;;;8.52;;
26052;SDS011;13826;51.186;4.450;2022-10-31T05:10:34;50.60;;;9.63;;
26052;SDS011;13826;51.186;4.450;2022-10-31T05:13:01;51.05;;;9.50;;
26052;SDS011;13826;51.186;4.450;2022-10-31T05:15:27;13.85;;;8.88;;
26052;SDS011;13826;51.186;4.450;2022-10-31T05:17:54;42.22;;;9.20;;
26052;SDS011;13826;51.186;4.450;2022-10-31T05:20:22;55.90;;;9.15;;
26052;SDS011;13826;51.186;4.450;2022-10-31T05:22:50;13.18;;;8.90;;
26052;SDS011;13826;51.186;4.450;2022-10-31T05:25:18;12.65;;;8.27;;
26052;SDS011;13826;51.186;4.450;2022-10-31T05:27:45;15.88;;;9.70;;
26052;SDS011;13826;51.186;4.450;2022-10-31T05:30:13;12.90;;;8.63;;
26052;SDS011;13826;51.186;4.450;2022-10-31T05:32:41;13.10;;;9.20;;
26052;SDS011;13826;51.186;4.450;2022-10-31T05:35:10;13.98;;;7.97;;
26052;SDS011;13826;51.186;4.450;2022-10-31T05:37:38;12.70;;;8.43;;
26052;SDS011;13826;51.186;4.450;2022-10-31T05:40:04;11.80;;;8.25;;
26052;SDS011;13826;51.186;4.450;2022-10-31T05:42:31;13.02;;;8.23;;
26052;SDS011;13826;51.186;4.450;2022-10-31T05:44:57;15.55;;;8.80;;
26052;SDS011;13826;51.186;4.450;2022-10-31T05:47:23;15.10;;;8.60;;
26052;SDS011;13826;51.186;4.450;2022-10-31T05:49:49;13.45;;;7.95;;
26052;SDS011;13826;51.186;4.450;2022-10-31T05:52:15;14.70;;;9.98;;
26052;SDS011;13826;51.186;4.450;2022-10-31T05:54:41;12.02;;;7.95;;
26052;SDS011;13826;51.186;4.450;2022-10-31T05:57:07;11.93;;;7.75;;
26052;SDS011;13826;51.186;4.450;2022-10-31T05:59:35;11.40;;;7.70;;
26052;SDS011;13826;51.186;4.450;2022-10-31T06:02:01;13.27;;;8.20;;
26052;SDS011;13826;51.186;4.450;2022-10-31T06:04:26;13.07;;;8.70;;
26052;SDS011;13826;51.186;4.450;2022-10-31T06:06:53;14.48;;;8.68;;
26052;SDS011;13826;51.186;4.450;2022-10-31T06:09:18;11.95;;;7.70;;
26052;SDS011;13826;51.186;4.450;2022-10-31T06:11:44;10.15;;;8.13;;
26052;SDS011;13826;51.186;4.450;2022-10-31T06:14:10;14.00;;;8.70;;
26052;SDS011;13826;51.186;4.450;2022-10-31T06:16:36;13.30;;;8.18;;
26052;SDS011;13826;51.186;4.450;2022-10-31T06:19:01;10.98;;;6.82;;
26052;SDS011;13826;51.186;4.450;2022-10-31T06:21:27;12.48;;;8.82;;
26052;SDS011;13826;51.186;4.450;2022-10-31T06:23:53;10.18;;;7.13;;
26052;SDS011;13826;51.186;4.450;2022-10-31T06:26:19;9.70;;;7.38;;
26052;SDS011;13826;51.186;4.450;2022-10-31T06:28:47;14.15;;;7.05;;
26052;SDS011;13826;51.186;4.450;2022-10-31T06:31:15;10.68;;;7.28;;
26052;SDS011;13826;51.186;4.450;2022-10-31T06:33:41;10.15;;;6.95;;
26052;SDS011;13826;51.186;4.450;2022-10-31T06:36:08;10.60;;;7.25;;
26052;SDS011;13826;51.186;4.450;2022-10-31T06:38:37;9.70;;;8.30;;
26052;SDS011;13826;51.186;4.450;2022-10-31T06:41:03;8.55;;;6.80;;
26052;SDS011;13826;51.186;4.450;2022-10-31T06:43:30;14.32;;;7.40;;
26052;SDS011;13826;51.186;4.450;2022-10-31T06:45:56;10.68;;;7.35;;
26052;SDS011;13826;51.186;4.450;2022-10-31T06:48:21;10.88;;;7.90;;
26052;SDS011;13826;51.186;4.450;2022-10-31T06:50:47;13.98;;;8.20;;
26052;SDS011;13826;51.186;4.450;2022-10-31T06:53:13;11.85;;;8.65;;
26052;SDS011;13826;51.186;4.450;2022-10-31T06:55:40;14.82;;;9.45;;
26052;SDS011;13826;51.186;4.450;2022-10-31T06:58:08;11.45;;;8.15;;
26052;SDS011;13826;51.186;4.450;2022-10-31T07:00:35;15.10;;;10.00;;
26052;SDS011;13826;51.186;4.450;2022-10-31T07:03:09;15.30;;;8.98;;
26052;SDS011;13826;51.186;4.450;2022-10-31T07:05:36;13.68;;;9.48;;
26052;SDS011;13826;51.186;4.450;2022-10-31T07:08:03;12.55;;;9.23;;
26052;SDS011;13826;51.186;4.450;2022-10-31T07:10:32;13.32;;;9.77;;
26052;SDS011;13826;51.186;4.450;2022-10-31T07:12:59;16.27;;;9.98;;
26052;SDS011;13826;51.186;4.450;2022-10-31T07:15:27;15.55;;;9.32;;
26052;SDS011;13826;51.186;4.450;2022-10-31T07:17:59;12.98;;;8.82;;
26052;SDS011;13826;51.186;4.450;2022-10-31T07:20:26;13.82;;;9.15;;
26052;SDS011;13826;51.186;4.450;2022-10-31T07:22:52;14.43;;;9.13;;
26052;SDS011;13826;51.186;4.450;2022-10-31T07:25:18;17.20;;;10.38;;
26052;SDS011;13826;51.186;4.450;2022-10-31T07:27:44;14.55;;;9.43;;
26052;SDS011;13826;51.186;4.450;2022-10-31T07:30:10;19.50;;;9.88;;
26052;SDS011;13826;51.186;4.450;2022-10-31T07:32:41;17.63;;;10.82;;
26052;SDS011;13826;51.186;4.450;2022-10-31T07:35:10;20.20;;;11.80;;
26052;SDS011;13826;51.186;4.450;2022-10-31T07:37:38;17.98;;;11.10;;
26052;SDS011;13826;51.186;4.450;2022-10-31T07:40:08;15.93;;;10.60;;
26052;SDS011;13826;51.186;4.450;2022-10-31T07:42:39;19.48;;;10.40;;
26052;SDS011;13826;51.186;4.450;2022-10-31T07:47:42;23.55;;;11.07;;
26052;SDS011;13826;51.186;4.450;2022-10-31T07:50:17;19.25;;;11.70;;
26052;SDS011;13826;51.186;4.450;2022-10-31T07:55:32;21.13;;;12.13;;
26052;SDS011;13826;51.186;4.450;2022-10-31T07:58:05;23.80;;;13.40;;
26052;SDS011;13826;51.186;4.450;2022-10-31T08:00:35;17.92;;;12.05;;
26052;SDS011;13826;51.186;4.450;2022-10-31T08:03:04;22.35;;;13.10;;
26052;SDS011;13826;51.186;4.450;2022-10-31T08:05:36;28.30;;;13.60;;
26052;SDS011;13826;51.186;4.450;2022-10-31T08:08:03;28.70;;;14.95;;
26052;SDS011;13826;51.186;4.450;2022-10-31T08:10:29;20.35;;;13.70;;
26052;SDS011;13826;51.186;4.450;2022-10-31T08:13:03;25.98;;;14.98;;
26052;SDS011;13826;51.186;4.450;2022-10-31T08:15:30;21.85;;;13.60;;
26052;SDS011;13826;51.186;4.450;2022-10-31T08:17:57;18.45;;;12.88;;
26052;SDS011;13826;51.186;4.450;2022-10-31T08:20:25;22.67;;;13.45;;
26052;SDS011;13826;51.186;4.450;2022-10-31T08:22:54;23.35;;;12.70;;
26052;SDS011;13826;51.186;4.450;2022-10-31T08:25:21;22.52;;;13.00;;
26052;SDS011;13826;51.186;4.450;2022-10-31T08:27:48;29.95;;;14.05;;
26052;SDS011;13826;51.186;4.450;2022-10-31T08:30:19;21.88;;;13.57;;
26052;SDS011;13826;51.186;4.450;2022-10-31T08:32:59;23.73;;;14.45;;
26052;SDS011;13826;51.186;4.450;2022-10-31T08:35:29;25.98;;;15.35;;
26052;SDS011;13826;51.186;4.450;2022-10-31T08:37:56;24.42;;;13.80;;
26052;SDS011;13826;51.186;4.450;2022-10-31T08:40:22;27.15;;;15.00;;
26052;SDS011;13826;51.186;4.450;2022-10-31T08:42:55;28.40;;;15.93;;
26052;SDS011;13826;51.186;4.450;2022-10-31T08:45:25;26.70;;;15.05;;
26052;SDS011;13826;51.186;4.450;2022-10-31T08:47:51;27.73;;;15.40;;
26052;SDS011;13826;51.186;4.450;2022-10-31T08:50:21;27.25;;;15.73;;
26052;SDS011;13826;51.186;4.450;2022-10-31T08:52:49;25.88;;;16.00;;
26052;SDS011;13826;51.186;4.450;2022-10-31T08:55:14;24.38;;;15.05;;
26052;SDS011;13826;51.186;4.450;2022-10-31T08:57:40;25.70;;;15.20;;
26052;SDS011;13826;51.186;4.450;2022-10-31T09:00:07;26.67;;;15.85;;
26052;SDS011;13826;51.186;4.450;2022-10-31T09:02:33;24.92;;;15.20;;
26052;SDS011;13826;51.186;4.450;2022-10-31T09:04:59;25.25;;;15.18;;
26052;SDS011;13826;51.186;4.450;2022-10-31T09:07:25;30.65;;;16.33;;
26052;SDS011;13826;51.186;4.450;2022-10-31T09:09:50;34.47;;;16.23;;
26052;SDS011;13826;51.186;4.450;2022-10-31T09:12:16;30.77;;;16.80;;
26052;SDS011;13826;51.186;4.450;2022-10-31T09:14:42;26.25;;;16.33;;
26052;SDS011;13826;51.186;4.450;2022-10-31T09:17:07;31.58;;;17.00;;
26052;SDS011;13826;51.186;4.450;2022-10-31T09:19:33;33.30;;;16.98;;
26052;SDS011;13826;51.186;4.450;2022-10-31T09:21:58;28.85;;;16.92;;
26052;SDS011;13826;51.186;4.450;2022-10-31T09:24:24;39.28;;;18.15;;
26052;SDS011;13826;51.186;4.450;2022-10-31T09:26:50;31.23;;;17.65;;
26052;SDS011;13826;51.186;4.450;2022-10-31T09:29:15;31.45;;;17.00;;
26052;SDS011;13826;51.186;4.450;2022-10-31T09:31:41;30.75;;;17.50;;
26052;SDS011;13826;51.186;4.450;2022-10-31T09:34:07;31.92;;;18.08;;
26052;SDS011;13826;51.186;4.450;2022-10-31T09:36:32;33.70;;;18.23;;
26052;SDS011;13826;51.186;4.450;2022-10-31T09:38:58;28.15;;;18.88;;
26052;SDS011;13826;51.186;4.450;2022-10-31T09:41:30;32.72;;;18.95;;
26052;SDS011;13826;51.186;4.450;2022-10-31T09:44:11;34.65;;;18.30;;
26052;SDS011;13826;51.186;4.450;2022-10-31T09:49:48;29.83;;;18.15;;
26052;SDS011;13826;51.186;4.450;2022-10-31T09:52:35;31.40;;;18.27;;
26052;SDS011;13826;51.186;4.450;2022-10-31T09:55:08;32.55;;;18.48;;
26052;SDS011;13826;51.186;4.450;2022-10-31T09:57:38;31.88;;;17.80;;
26052;SDS011;13826;51.186;4.450;2022-10-31T10:00:16;29.15;;;17.92;;
26052;SDS011;13826;51.186;4.450;2022-10-31T10:11:24;29.83;;;17.85;;
26052;SDS011;13826;51.186;4.450;2022-10-31T10:14:22;30.00;;;17.75;;
26052;SDS011;13826;51.186;4.450;2022-10-31T10:19:38;32.85;;;18.70;;
26052;SDS011;13826;51.186;4.450;2022-10-31T10:22:43;30.60;;;18.35;;
26052;SDS011;13826;51.186;4.450;2022-10-31T10:25:23;31.05;;;18.58;;
26052;SDS011;13826;51.186;4.450;2022-10-31T10:30:39;37.20;;;19.00;;
26052;SDS011;13826;51.186;4.450;2022-10-31T10:33:14;33.45;;;19.15;;
26052;SDS011;13826;51.186;4.450;2022-10-31T10:35:49;32.97;;;19.30;;
26052;SDS011;13826;51.186;4.450;2022-10-31T10:38:30;37.15;;;18.63;;
26052;SDS011;13826;51.186;4.450;2022-10-31T10:41:26;34.00;;;19.80;;
26052;SDS011;13826;51.186;4.450;2022-10-31T10:43:55;32.47;;;18.85;;
26052;SDS011;13826;51.186;4.450;2022-10-31T10:50:00;34.25;;;19.65;;
26052;SDS011;13826;51.186;4.450;2022-10-31T11:02:55;31.98;;;18.83;;
26052;SDS011;13826;51.186;4.450;2022-10-31T11:05:23;40.00;;;20.90;;
26052;SDS011;13826;51.186;4.450;2022-10-31T11:07:53;36.75;;;20.45;;
26052;SDS011;13826;51.186;4.450;2022-10-31T11:10:18;33.55;;;20.65;;
26052;SDS011;13826;51.186;4.450;2022-10-31T11:12:45;37.13;;;20.90;;
26052;SDS011;13826;51.186;4.450;2022-10-31T11:15:55;43.08;;;22.38;;
26052;SDS011;13826;51.186;4.450;2022-10-31T11:18:31;38.05;;;23.45;;
26052;SDS011;13826;51.186;4.450;2022-10-31T11:21:00;38.83;;;21.35;;
26052;SDS011;13826;51.186;4.450;2022-10-31T11:23:28;41.20;;;22.95;;
26052;SDS011;13826;51.186;4.450;2022-10-31T11:28:26;41.28;;;22.10;;
26052;SDS011;13826;51.186;4.450;2022-10-31T11:35:59;45.58;;;22.92;;
26052;SDS011;13826;51.186;4.450;2022-10-31T11:38:47;40.55;;;23.40;;
26052;SDS011;13826;51.186;4.450;2022-10-31T11:41:14;40.13;;;23.27;;
26052;SDS011;13826;51.186;4.450;2022-10-31T11:43:57;40.95;;;22.60;;
26052;SDS011;13826;51.186;4.450;2022-10-31T11:46:35;40.30;;;21.85;;
26052;SDS011;13826;51.186;4.450;2022-10-31T11:49:15;46.60;;;23.35;;
26052;SDS011;13826;51.186;4.450;2022-10-31T11:51:41;38.75;;;23.35;;
26052;SDS011;13826;51.186;4.450;2022-10-31T11:54:15;49.80;;;24.45;;
26052;SDS011;13826;51.186;4.450;2022-10-31T11:56:54;38.30;;;21.85;;
26052;SDS011;13826;51.186;4.450;2022-10-31T11:59:27;38.55;;;22.70;;
26052;SDS011;13826;51.186;4.450;2022-10-31T12:01:56;38.88;;;22.00;;
26052;SDS011;13826;51.186;4.450;2022-10-31T12:04:32;36.22;;;23.25;;
26052;SDS011;13826;51.186;4.450;2022-10-31T12:07:06;43.65;;;23.55;;
26052;SDS011;13826;51.186;4.450;2022-10-31T12:09:33;43.65;;;24.17;;
26052;SDS011;13826;51.186;4.450;2022-10-31T12:17:39;49.25;;;25.73;;
26052;SDS011;13826;51.186;4.450;2022-10-31T12:31:07;42.33;;;25.38;;
26052;SDS011;13826;51.186;4.450;2022-10-31T12:39:23;49.08;;;26.88;;
26052;SDS011;13826;51.186;4.450;2022-10-31T12:44:59;52.25;;;26.50;;
26052;SDS011;13826;51.186;4.450;2022-10-31T12:47:31;45.13;;;27.38;;
26052;SDS011;13826;51.186;4.450;2022-10-31T12:52:41;50.30;;;26.90;;
26052;SDS011;13826;51.186;4.450;2022-10-31T12:58:28;46.97;;;25.30;;
26052;SDS011;13826;51.186;4.450;2022-10-31T13:01:09;50.45;;;27.13;;
26052;SDS011;13826;51.186;4.450;2022-10-31T13:03:45;48.78;;;25.42;;
26052;SDS011;13826;51.186;4.450;2022-10-31T13:06:18;40.13;;;24.27;;
26052;SDS011;13826;51.186;4.450;2022-10-31T13:08:49;50.70;;;24.38;;
26052;SDS011;13826;51.186;4.450;2022-10-31T13:11:21;45.22;;;24.42;;
26052;SDS011;13826;51.186;4.450;2022-10-31T13:13:53;51.05;;;25.17;;
26052;SDS011;13826;51.186;4.450;2022-10-31T13:16:39;43.13;;;23.40;;
26052;SDS011;13826;51.186;4.450;2022-10-31T13:19:16;50.88;;;23.13;;
26052;SDS011;13826;51.186;4.450;2022-10-31T13:24:22;46.08;;;23.15;;
26052;SDS011;13826;51.186;4.450;2022-10-31T13:26:53;42.55;;;24.42;;
26052;SDS011;13826;51.186;4.450;2022-10-31T13:29:35;50.80;;;23.63;;
26052;SDS011;13826;51.186;4.450;2022-10-31T13:32:12;48.70;;;24.95;;
26052;SDS011;13826;51.186;4.450;2022-10-31T13:34:47;52.50;;;24.75;;
26052;SDS011;13826;51.186;4.450;2022-10-31T13:45:24;37.65;;;19.75;;
26052;SDS011;13826;51.186;4.450;2022-10-31T13:48:00;37.47;;;20.02;;
26052;SDS011;13826;51.186;4.450;2022-10-31T13:50:43;48.45;;;25.15;;
26052;SDS011;13826;51.186;4.450;2022-10-31T13:56:04;37.22;;;21.20;;
26052;SDS011;13826;51.186;4.450;2022-10-31T13:58:54;30.30;;;17.15;;
26052;SDS011;13826;51.186;4.450;2022-10-31T14:01:25;34.78;;;16.80;;
26052;SDS011;13826;51.186;4.450;2022-10-31T14:04:04;30.25;;;15.30;;
26052;SDS011;13826;51.186;4.450;2022-10-31T14:06:40;27.20;;;14.18;;
26052;SDS011;13826;51.186;4.450;2022-10-31T14:09:15;27.17;;;14.38;;
26052;SDS011;13826;51.186;4.450;2022-10-31T14:11:46;28.23;;;13.18;;
26052;SDS011;13826;51.186;4.450;2022-10-31T14:14:13;34.28;;;13.43;;
26052;SDS011;13826;51.186;4.450;2022-10-31T14:16:40;27.35;;;11.85;;
26052;SDS011;13826;51.186;4.450;2022-10-31T14:19:14;21.08;;;12.77;;
26052;SDS011;13826;51.186;4.450;2022-10-31T14:21:46;28.17;;;12.65;;
26052;SDS011;13826;51.186;4.450;2022-10-31T14:24:36;27.15;;;12.30;;
26052;SDS011;13826;51.186;4.450;2022-10-31T14:27:03;34.88;;;12.30;;
26052;SDS011;13826;51.186;4.450;2022-10-31T14:29:49;28.48;;;19.63;;
26052;SDS011;13826;51.186;4.450;2022-10-31T14:32:22;39.00;;;23.42;;
26052;SDS011;13826;51.186;4.450;2022-10-31T14:40:35;25.55;;;12.30;;
26052;SDS011;13826;51.186;4.450;2022-10-31T14:48:51;27.23;;;10.88;;
26052;SDS011;13826;51.186;4.450;2022-10-31T14:51:39;23.40;;;11.45;;
26052;SDS011;13826;51.186;4.450;2022-10-31T14:54:11;17.30;;;10.85;;
26052;SDS011;13826;51.186;4.450;2022-10-31T14:56:43;30.23;;;13.68;;
26052;SDS011;13826;51.186;4.450;2022-10-31T14:59:18;22.45;;;11.32;;
26052;SDS011;13826;51.186;4.450;2022-10-31T15:01:55;30.70;;;11.55;;
26052;SDS011;13826;51.186;4.450;2022-10-31T15:04:28;20.45;;;10.30;;
26052;SDS011;13826;51.186;4.450;2022-10-31T15:06:59;24.87;;;10.97;;
26052;SDS011;13826;51.186;4.450;2022-10-31T15:09:44;22.20;;;10.80;;
26052;SDS011;13826;51.186;4.450;2022-10-31T15:12:28;23.65;;;12.02;;
26052;SDS011;13826;51.186;4.450;2022-10-31T15:14:55;31.50;;;10.05;;
26052;SDS011;13826;51.186;4.450;2022-10-31T15:17:22;27.40;;;10.60;;
26052;SDS011;13826;51.186;4.450;2022-10-31T15:19:49;24.77;;;11.18;;
26052;SDS011;13826;51.186;4.450;2022-10-31T15:22:17;27.80;;;11.02;;
26052;SDS011;13826;51.186;4.450;2022-10-31T15:24:45;32.58;;;10.43;;
26052;SDS011;13826;51.186;4.450;2022-10-31T15:27:14;25.67;;;10.30;;
26052;SDS011;13826;51.186;4.450;2022-10-31T15:29:51;25.00;;;10.48;;
26052;SDS011;13826;51.186;4.450;2022-10-31T15:32:25;21.42;;;10.00;;
26052;SDS011;13826;51.186;4.450;2022-10-31T15:34:52;24.65;;;10.18;;
26052;SDS011;13826;51.186;4.450;2022-10-31T15:37:20;20.30;;;9.07;;
26052;SDS011;13826;51.186;4.450;2022-10-31T15:39:47;21.23;;;9.40;;
26052;SDS011;13826;51.186;4.450;2022-10-31T15:42:18;23.42;;;9.68;;
26052;SDS011;13826;51.186;4.450;2022-10-31T15:44:47;17.95;;;9.43;;
26052;SDS011;13826;51.186;4.450;2022-10-31T15:47:34;19.52;;;8.70;;
26052;SDS011;13826;51.186;4.450;2022-10-31T15:50:01;17.20;;;8.25;;
26052;SDS011;13826;51.186;4.450;2022-10-31T15:55:03;27.45;;;9.10;;
26052;SDS011;13826;51.186;4.450;2022-10-31T15:57:42;17.85;;;8.52;;
26052;SDS011;13826;51.186;4.450;2022-10-31T16:03:04;21.17;;;8.93;;
26052;SDS011;13826;51.186;4.450;2022-10-31T16:05:43;19.48;;;8.23;;
26052;SDS011;13826;51.186;4.450;2022-10-31T16:10:56;18.15;;;8.40;;
26052;SDS011;13826;51.186;4.450;2022-10-31T16:13:28;23.67;;;9.00;;
26052;SDS011;13826;51.186;4.450;2022-10-31T16:16:00;23.08;;;9.35;;
26052;SDS011;13826;51.186;4.450;2022-10-31T16:18:28;22.75;;;9.65;;
26052;SDS011;13826;51.186;4.450;2022-10-31T16:21:05;21.77;;;9.77;;
26052;SDS011;13826;51.186;4.450;2022-10-31T16:23:32;22.73;;;9.55;;
26052;SDS011;13826;51.186;4.450;2022-10-31T16:25:58;18.63;;;10.00;;
26052;SDS011;13826;51.186;4.450;2022-10-31T16:28:25;22.25;;;10.63;;
26052;SDS011;13826;51.186;4.450;2022-10-31T16:30:53;20.23;;;10.23;;
26052;SDS011;13826;51.186;4.450;2022-10-31T16:36:01;23.55;;;10.93;;
26052;SDS011;13826;51.186;4.450;2022-10-31T16:38:45;28.90;;;12.45;;
26052;SDS011;13826;51.186;4.450;2022-10-31T16:41:11;27.67;;;12.90;;
26052;SDS011;13826;51.186;4.450;2022-10-31T16:43:36;24.77;;;12.98;;
26052;SDS011;13826;51.186;4.450;2022-10-31T16:46:02;26.95;;;13.80;;
26052;SDS011;13826;51.186;4.450;2022-10-31T16:48:29;58.28;;;15.45;;
26052;SDS011;13826;51.186;4.450;2022-10-31T16:50:54;30.90;;;13.57;;
26052;SDS011;13826;51.186;4.450;2022-10-31T16:53:20;31.65;;;13.85;;
26052;SDS011;13826;51.186;4.450;2022-10-31T16:58:23;31.90;;;14.65;;
26052;SDS011;13826;51.186;4.450;2022-10-31T17:00:51;32.75;;;13.30;;
26052;SDS011;13826;51.186;4.450;2022-10-31T17:03:18;35.47;;;15.65;;
26052;SDS011;13826;51.186;4.450;2022-10-31T17:05:44;33.92;;;15.02;;
26052;SDS011;13826;51.186;4.450;2022-10-31T17:08:10;36.03;;;16.02;;
26052;SDS011;13826;51.186;4.450;2022-10-31T17:10:36;33.40;;;15.32;;
26052;SDS011;13826;51.186;4.450;2022-10-31T17:13:03;38.80;;;16.50;;